Time;durP1;ratioP1;P1;durP2;ratioP2;P2;SDS_P1;SDS_P2;PMS_P1;PMS_P2;Temp;Humidity;BMP_temperature;BMP_pressure;BME280_temperature;BME280_humidity;BME280_pressure;Samples;Min_cycle;Max_cycle;Signal;HPM_P1;HPM_P2
2022/02/05 00:01:35;;;;;;;;;;;;;;;5.03;100.00;99003.16;4648110;30;19937;-74
2022/02/05 00:04:08;;;;;;;;;;;;;;;5.23;100.00;99003.66;4633994;30;19932;-74
2022/02/05 00:06:39;;;;;;;;;;;;;;;5.30;100.00;99015.56;4648126;30;20544;-74
2022/02/05 00:12:11;;;;;;;;;;;;;;;5.28;100.00;99009.63;4675154;30;20389;-74
2022/02/05 00:41:23;;;;;;;;;;;;;;;4.80;100.00;99010.19;4683865;30;20018;-74
2022/02/05 00:43:56;;;;;;;;;;;;;;;4.90;100.00;99015.78;4674886;30;19942;-74
2022/02/05 00:46:26;;;;;;;;;;;;;;;5.00;100.00;99012.25;4666653;30;19982;-74
2022/02/05 00:48:53;;;;;;;;;;;;;;;5.05;100.00;99024.94;4666934;30;19932;-74
2022/02/05 00:51:26;;;;;;;;;;;;;;;4.86;100.00;99016.94;4650994;30;20026;-74
2022/02/05 00:54:09;;;;;;;;;;;;;;;5.01;100.00;99015.84;4651280;30;19931;-74
2022/02/05 00:56:49;;;;;;;;;;;;;;;4.75;100.00;99014.09;4636608;30;20452;-74
2022/02/05 00:59:17;;;;;;;;;;;;;;;4.91;100.00;99033.97;4666081;30;19936;-74
2022/02/05 01:01:45;;;;;;;;;;;;;;;4.88;100.00;99034.75;4650516;30;19938;-75
2022/02/05 01:04:12;;;;;;;;;;;;;;;5.02;100.00;99034.81;4666098;30;19936;-74
2022/02/05 01:06:40;;;;;;;;;;;;;;;4.92;100.00;99034.75;4665585;30;20555;-74
2022/02/05 01:09:10;;;;;;;;;;;;;;;5.06;100.00;99035.63;4652218;30;19955;-74
2022/02/05 01:11:38;;;;;;;;;;;;;;;5.33;100.00;99050.03;4667458;30;20062;-74
2022/02/05 01:14:08;;;;;;;;;;;;;;;5.08;100.00;99044.34;4683220;30;19939;-75
2022/02/05 01:19:02;;;;;;;;;;;;;;;5.03;100.00;99053.03;4683456;30;19936;-74
2022/02/05 01:21:42;;;;;;;;;;;;;;;4.89;100.00;99052.16;4682872;30;19938;-74
2022/02/05 01:24:13;;;;;;;;;;;;;;;4.89;100.00;99058.47;4667883;30;19990;-74
2022/02/05 01:26:48;;;;;;;;;;;;;;;4.81;100.00;99045.78;4667936;30;19935;-74
2022/02/05 01:30:08;;;;;;;;;;;;;;;4.86;100.00;99050.16;4668121;30;19958;-74
2022/02/05 01:32:10;;;;;;;;;;;;;;;4.88;100.00;99056.88;4663913;30;19989;-74
2022/02/05 01:53:50;;;;;;;;;;;;;;;4.80;100.00;99058.00;4636540;30;19931;-74
2022/02/05 01:59:10;;;;;;;;;;;;;;;4.73;100.00;99059.94;4650744;30;20366;-74
2022/02/05 02:18:27;;;;;;;;;;;;;;;5.52;100.00;99058.00;4632684;30;20473;-74
2022/02/05 02:21:21;;;;;;;;;;;;;;;5.54;100.00;99073.06;4632930;31;20115;-74
2022/02/05 02:31:34;;;;;;;;;;;;;;;5.63;100.00;99065.16;4604861;31;20394;-75
2022/02/05 02:34:05;;;;;;;;;;;;;;;5.67;100.00;99064.38;4604727;31;20334;-75
2022/02/05 02:36:37;;;;;;;;;;;;;;;5.71;100.00;99063.22;4604742;31;19940;-75
2022/02/05 02:39:19;;;;;;;;;;;;;;;5.26;100.00;99063.81;4632418;30;20325;-74
2022/02/05 02:41:51;;;;;;;;;;;;;;;5.05;100.00;99072.81;4665366;30;19935;-74
2022/02/05 02:44:19;;;;;;;;;;;;;;;5.33;100.00;99066.66;4670571;30;19931;-74
2022/02/05 02:46:46;;;;;;;;;;;;;;;5.46;100.00;99079.78;4685345;30;19941;-74
2022/02/05 02:49:20;;;;;;;;;;;;;;;5.38;100.00;99069.81;4685556;30;19963;-74
2022/02/05 02:57:26;;;;;;;;;;;;;;;5.32;100.00;99063.06;4670098;30;20305;-74
2022/02/05 02:59:57;;;;;;;;;;;;;;;5.44;100.00;99068.28;4685405;30;20330;-74
2022/02/05 03:02:26;;;;;;;;;;;;;;;5.36;100.00;99066.66;4669674;30;20022;-74
2022/02/05 03:04:54;;;;;;;;;;;;;;;5.71;100.00;99065.22;4685226;30;19935;-74
2022/02/05 03:07:24;;;;;;;;;;;;;;;5.63;100.00;99067.94;4670020;30;19939;-75
2022/02/05 03:09:52;;;;;;;;;;;;;;;5.60;100.00;99076.25;4685275;30;19935;-74
2022/02/05 03:12:20;;;;;;;;;;;;;;;5.76;100.00;99073.13;4669729;30;20312;-74
2022/02/05 03:14:47;;;;;;;;;;;;;;;5.38;100.00;99080.91;4669630;30;20388;-74
2022/02/05 03:17:23;;;;;;;;;;;;;;;5.19;100.00;99089.53;4684888;30;19940;-74
2022/02/05 03:19:51;;;;;;;;;;;;;;;5.34;100.00;99090.38;4669778;30;20384;-74
2022/02/05 03:22:19;;;;;;;;;;;;;;;5.27;100.00;99085.59;4685091;30;20377;-74
2022/02/05 03:24:46;;;;;;;;;;;;;;;5.51;100.00;99087.69;4669594;30;19931;-74
2022/02/05 03:27:17;;;;;;;;;;;;;;;5.28;100.00;99076.13;4684777;30;20445;-74
2022/02/05 03:29:47;;;;;;;;;;;;;;;5.04;100.00;99076.75;4655381;30;19991;-74
2022/02/05 03:32:15;;;;;;;;;;;;;;;5.21;100.00;99081.59;4684504;30;19931;-74
2022/02/05 03:34:42;;;;;;;;;;;;;;;5.36;100.00;99082.50;4669416;30;19935;-74
2022/02/05 03:37:10;;;;;;;;;;;;;;;5.35;100.00;99081.69;4684629;30;19932;-74
2022/02/05 03:39:37;;;;;;;;;;;;;;;5.33;100.00;99072.97;4655223;30;19939;-74
2022/02/05 03:42:04;;;;;;;;;;;;;;;5.47;100.00;99072.22;4655219;30;20025;-74
2022/02/05 03:44:32;;;;;;;;;;;;;;;5.47;100.00;99069.47;4684513;30;19931;-74
2022/02/05 03:46:59;;;;;;;;;;;;;;;5.36;100.00;99061.09;4669104;30;20019;-74
2022/02/05 03:49:26;;;;;;;;;;;;;;;5.34;100.00;99063.50;4669224;30;19932;-74
2022/02/05 03:51:54;;;;;;;;;;;;;;;5.39;100.00;99062.31;4668974;30;20381;-74
2022/02/05 03:54:24;;;;;;;;;;;;;;;5.47;100.00;99050.06;4684505;30;20397;-74
2022/02/05 03:56:51;;;;;;;;;;;;;;;5.32;100.00;99054.75;4669210;30;19996;-74
2022/02/05 03:59:18;;;;;;;;;;;;;;;5.50;100.00;99044.53;4668772;30;19931;-75
2022/02/05 04:01:46;;;;;;;;;;;;;;;5.49;100.00;99048.50;4654864;30;19931;-74
2022/02/05 04:04:14;;;;;;;;;;;;;;;5.45;100.00;99044.91;4677371;30;19931;-74
2022/02/05 04:06:41;;;;;;;;;;;;;;;5.24;100.00;99053.13;4640973;30;20424;-74
2022/02/05 04:09:17;;;;;;;;;;;;;;;5.21;100.00;99040.06;4684232;30;19955;-74
2022/02/05 04:17:23;;;;;;;;;;;;;;;5.27;100.00;99049.59;4684191;30;20001;-74
2022/02/05 04:19:50;;;;;;;;;;;;;;;5.25;100.00;99048.41;4684148;30;19974;-74
2022/02/05 04:22:18;;;;;;;;;;;;;;;5.25;100.00;99046.44;4684050;30;19931;-74
2022/02/05 04:24:45;;;;;;;;;;;;;;;5.12;100.00;99045.16;4683989;30;20411;-74
2022/02/05 04:27:13;;;;;;;;;;;;;;;4.96;100.00;99041.91;4668568;30;20408;-74
2022/02/05 04:29:40;;;;;;;;;;;;;;;5.11;100.00;99048.31;4667911;30;19990;-74
2022/02/05 04:32:07;;;;;;;;;;;;;;;5.14;100.00;99051.09;4654244;30;19935;-74
2022/02/05 04:34:34;;;;;;;;;;;;;;;5.09;100.00;99051.47;4668472;30;19938;-74
2022/02/05 04:37:04;;;;;;;;;;;;;;;5.09;100.00;99045.94;4683888;30;20556;-74
2022/02/05 04:39:33;;;;;;;;;;;;;;;5.04;100.00;99049.06;4654437;30;20026;-74
2022/02/05 04:42:11;;;;;;;;;;;;;;;5.06;100.00;99040.38;4683664;30;19931;-74
2022/02/05 05:00:17;;;;;;;;;;;;;;;4.74;100.00;99050.47;4668291;30;19959;-74
2022/02/05 05:02:57;;;;;;;;;;;;;;;4.91;100.00;99044.22;4668231;30;20361;-74
2022/02/05 05:05:48;;;;;;;;;;;;;;;5.13;100.00;99045.97;4683630;30;19936;-74
2022/02/05 05:08:34;;;;;;;;;;;;;;;4.94;100.00;99032.38;4683028;30;20289;-74
2022/02/05 05:21:43;;;;;;;;;;;;;;;4.74;100.00;99018.03;4683413;30;19935;-74
2022/02/05 05:24:10;;;;;;;;;;;;;;;4.73;100.00;99022.00;4668094;30;20385;-74
2022/02/05 05:26:37;;;;;;;;;;;;;;;4.82;100.00;99025.22;4682963;30;20426;-74
2022/02/05 05:29:04;;;;;;;;;;;;;;;4.69;100.00;99012.88;4683099;30;20392;-74
2022/02/05 05:31:32;;;;;;;;;;;;;;;4.49;100.00;99022.63;4667992;30;19938;-74
2022/02/05 05:33:59;;;;;;;;;;;;;;;4.51;100.00;99008.41;4683323;30;19939;-74
2022/02/05 05:36:26;;;;;;;;;;;;;;;4.54;100.00;99010.41;4667564;30;19936;-74
2022/02/05 05:38:58;;;;;;;;;;;;;;;4.76;100.00;99010.16;4682489;30;19939;-74
2022/02/05 05:41:25;;;;;;;;;;;;;;;4.77;100.00;99010.94;4682485;30;19939;-75
2022/02/05 05:46:44;;;;;;;;;;;;;;;4.61;100.00;99008.47;4686005;30;19932;-73
2022/02/05 05:49:16;;;;;;;;;;;;;;;4.83;100.00;99004.63;4670783;30;19942;-74
2022/02/05 05:51:46;;;;;;;;;;;;;;;4.64;100.00;98993.84;4671078;30;19939;-74
2022/02/05 05:54:14;;;;;;;;;;;;;;;4.66;100.00;98999.81;4686619;30;20379;-74
2022/02/05 05:56:42;;;;;;;;;;;;;;;4.76;100.00;98992.72;4656664;30;20313;-74
2022/02/05 05:59:09;;;;;;;;;;;;;;;4.66;100.00;98985.97;4670750;30;20413;-74
2022/02/05 06:01:37;;;;;;;;;;;;;;;4.78;100.00;98993.97;4686190;30;19982;-74
2022/02/05 06:04:04;;;;;;;;;;;;;;;4.74;100.00;98987.59;4671068;30;20033;-74
2022/02/05 06:06:31;;;;;;;;;;;;;;;4.57;100.00;98977.22;4670899;30;20365;-74
2022/02/05 06:08:58;;;;;;;;;;;;;;;4.60;100.00;98976.44;4686019;30;19931;-74
2022/02/05 06:11:26;;;;;;;;;;;;;;;4.44;100.00;98981.47;4656472;30;19931;-74
2022/02/05 06:13:53;;;;;;;;;;;;;;;4.65;100.00;98976.06;4686180;30;20523;-75
2022/02/05 06:16:28;;;;;;;;;;;;;;;4.50;100.00;98968.84;4686350;30;20026;-74
2022/02/05 06:18:57;;;;;;;;;;;;;;;4.43;100.00;98979.88;4669215;30;19959;-74
2022/02/05 06:21:24;;;;;;;;;;;;;;;4.54;100.00;98968.88;4669060;30;19936;-75
2022/02/05 06:23:51;;;;;;;;;;;;;;;4.58;100.00;98972.47;4669059;30;20318;-74
2022/02/05 06:26:18;;;;;;;;;;;;;;;4.76;100.00;98976.94;4653695;30;19939;-74
2022/02/05 06:28:46;;;;;;;;;;;;;;;4.65;100.00;98973.28;4653872;30;19951;-75
2022/02/05 06:31:13;;;;;;;;;;;;;;;4.67;100.00;98973.72;4639571;30;20445;-74
2022/02/05 06:33:40;;;;;;;;;;;;;;;4.59;100.00;98976.84;4668957;30;19932;-74
2022/02/05 06:36:08;;;;;;;;;;;;;;;4.80;100.00;98977.72;4653639;30;19932;-75
2022/02/05 06:38:35;;;;;;;;;;;;;;;4.96;100.00;98969.91;4653459;30;19932;-75
2022/02/05 06:41:02;;;;;;;;;;;;;;;4.94;100.00;98966.75;4668973;30;19982;-75
2022/02/05 06:43:29;;;;;;;;;;;;;;;4.90;100.00;98960.41;4668753;30;19931;-75
2022/02/05 06:45:56;;;;;;;;;;;;;;;4.94;100.00;98963.97;4668584;30;19938;-75
2022/02/05 06:48:24;;;;;;;;;;;;;;;4.95;100.00;98951.69;4653347;30;19935;-75
2022/02/05 06:50:51;;;;;;;;;;;;;;;5.03;100.00;98949.75;4668501;30;19939;-75
2022/02/05 06:53:18;;;;;;;;;;;;;;;5.09;100.00;98954.53;4652685;30;19939;-75
2022/02/05 06:55:45;;;;;;;;;;;;;;;5.09;100.00;98968.38;4653205;30;19982;-74
2022/02/05 06:58:12;;;;;;;;;;;;;;;4.93;100.00;98959.63;4661530;30;19938;-74
2022/02/05 07:00:40;;;;;;;;;;;;;;;4.98;100.00;98962.00;4668402;30;20039;-74
2022/02/05 07:03:08;;;;;;;;;;;;;;;5.00;100.00;98961.63;4653028;30;19940;-74
2022/02/05 07:05:35;;;;;;;;;;;;;;;5.26;100.00;98962.13;4652988;30;19987;-74
2022/02/05 07:08:02;;;;;;;;;;;;;;;5.47;100.00;98958.63;4667880;30;20026;-75
2022/02/05 07:10:29;;;;;;;;;;;;;;;5.26;100.00;98953.81;4668077;30;19938;-75
2022/02/05 07:13:11;;;;;;;;;;;;;;;5.27;100.00;98958.16;4652964;30;20034;-75
2022/02/05 07:15:43;;;;;;;;;;;;;;;5.24;100.00;98958.16;4667990;30;20447;-75
2022/02/05 07:20:46;;;;;;;;;;;;;;;5.24;100.00;98938.78;4652761;30;19936;-75
2022/02/05 07:31:12;;;;;;;;;;;;;;;5.79;100.00;98933.72;4667792;30;19932;-74
2022/02/05 07:33:40;;;;;;;;;;;;;;;5.51;100.00;98935.25;4652518;30;20025;-75
2022/02/05 07:36:07;;;;;;;;;;;;;;;5.38;100.00;98911.91;4667630;30;19995;-75
2022/02/05 07:38:34;;;;;;;;;;;;;;;5.63;100.00;98926.56;4667472;30;20008;-74
2022/02/05 07:41:02;;;;;;;;;;;;;;;5.42;100.00;98926.53;4652340;30;19931;-74
2022/02/05 07:43:34;;;;;;;;;;;;;;;5.67;100.00;98920.25;4667589;30;20315;-74
2022/02/05 07:46:05;;;;;;;;;;;;;;;5.80;100.00;98918.69;4638515;30;20291;-74
2022/02/05 07:48:34;;;;;;;;;;;;;;;5.60;100.00;98913.50;4667432;30;20279;-75
2022/02/05 07:51:01;;;;;;;;;;;;;;;5.77;100.00;98911.16;4652140;30;19932;-75
2022/02/05 07:53:29;;;;;;;;;;;;;;;5.81;100.00;98911.94;4651916;30;19932;-75
2022/02/05 07:55:56;;;;;;;;;;;;;;;5.75;100.00;98897.69;4652196;30;19932;-75
2022/02/05 07:58:23;;;;;;;;;;;;;;;5.77;100.00;98891.75;4667472;30;19935;-75
2022/02/05 08:00:52;;;;;;;;;;;;;;;5.95;100.00;98887.03;4667375;30;19963;-75
2022/02/05 08:03:19;;;;;;;;;;;;;;;5.77;100.00;98883.44;4637897;30;20356;-76
2022/02/05 08:05:46;;;;;;;;;;;;;;;5.82;100.00;98889.41;4651156;30;19982;-75
2022/02/05 08:08:17;;;;;;;;;;;;;;;5.95;100.00;98864.84;4651839;30;19932;-75
2022/02/05 08:10:55;;;;;;;;;;;;;;;5.89;100.00;98858.09;4651855;30;19959;-76
2022/02/05 08:13:24;;;;;;;;;;;;;;;5.95;100.00;98853.75;4666928;30;19939;-75
2022/02/05 08:15:56;;;;;;;;;;;;;;;6.12;100.00;98858.47;4623939;30;19990;-75
2022/02/05 08:18:23;;;;;;;;;;;;;;;6.16;100.00;98859.25;4666963;30;19938;-75
2022/02/05 08:20:51;;;;;;;;;;;;;;;6.15;100.00;98852.91;4666591;30;20444;-75
2022/02/05 08:23:18;;;;;;;;;;;;;;;6.20;100.00;98840.63;4651724;30;19939;-75
2022/02/05 08:25:45;;;;;;;;;;;;;;;6.30;100.00;98820.41;4651634;30;19936;-74
2022/02/05 08:28:13;;;;;;;;;;;;;;;6.17;100.00;98833.91;4666887;30;19932;-75
2022/02/05 08:30:40;;;;;;;;;;;;;;;6.30;100.00;98823.16;4651467;30;19931;-75
2022/02/05 08:33:07;;;;;;;;;;;;;;;6.54;100.00;98822.28;4666494;30;20461;-75
2022/02/05 08:35:34;;;;;;;;;;;;;;;6.53;100.00;98818.72;4666525;30;19939;-74
2022/02/05 08:38:02;;;;;;;;;;;;;;;6.65;100.00;98825.81;4651443;30;20018;-75
2022/02/05 08:40:30;;;;;;;;;;;;;;;6.39;100.00;98812.44;4651173;30;19971;-75
2022/02/05 08:42:58;;;;;;;;;;;;;;;6.53;100.00;98807.63;4666635;30;19932;-74
2022/02/05 08:45:25;;;;;;;;;;;;;;;6.60;100.00;98795.69;4651481;30;19935;-74
2022/02/05 08:47:53;;;;;;;;;;;;;;;6.41;100.00;98796.97;4651298;30;19939;-74
2022/02/05 08:50:20;;;;;;;;;;;;;;;6.63;100.00;98790.13;4666456;30;19936;-75
2022/02/05 08:52:52;;;;;;;;;;;;;;;6.60;100.00;98787.38;4651131;30;20027;-75
2022/02/05 08:55:20;;;;;;;;;;;;;;;6.79;100.00;98782.09;4637186;30;20313;-75
2022/02/05 08:57:47;;;;;;;;;;;;;;;6.86;100.00;98781.28;4651205;30;19932;-75
2022/02/05 09:00:22;;;;;;;;;;;;;;;6.86;100.00;98764.63;4651169;30;19931;-75
2022/02/05 09:03:01;;;;;;;;;;;;;;;6.79;100.00;98767.44;4666511;30;19932;-77
2022/02/05 09:05:50;;;;;;;;;;;;;;;6.94;100.00;98755.03;4650850;30;19936;-77
2022/02/05 09:08:24;;;;;;;;;;;;;;;6.87;100.00;98742.00;4670637;30;19955;-77
2022/02/05 09:11:02;;;;;;;;;;;;;;;6.98;100.00;98737.16;4680892;30;19990;-76
2022/02/05 09:16:03;;;;;;;;;;;;;;;7.08;100.00;98718.84;4683269;30;19986;-77
2022/02/05 09:18:31;;;;;;;;;;;;;;;7.05;100.00;98720.44;4650763;30;19931;-77
2022/02/05 09:20:58;;;;;;;;;;;;;;;7.17;100.00;98714.41;4650956;30;20313;-77
2022/02/05 09:23:25;;;;;;;;;;;;;;;7.03;100.00;98702.59;4651158;30;19959;-77
2022/02/05 09:25:53;;;;;;;;;;;;;;;7.17;100.00;98699.72;4650999;30;20071;-77
2022/02/05 09:28:22;;;;;;;;;;;;;;;7.36;100.00;98699.16;4650770;30;19936;-77
2022/02/05 09:33:17;;;;;;;;;;;;;;;7.16;100.00;98678.69;4682839;30;20376;-77
2022/02/05 09:35:44;;;;;;;;;;;;;;;7.36;100.00;98665.81;4683043;30;19932;-77
2022/02/05 09:38:11;;;;;;;;;;;;;;;7.58;100.00;98672.72;4653916;30;19932;-77
2022/02/05 09:40:38;;;;;;;;;;;;;;;7.68;100.00;98676.59;4667665;30;19939;-77
2022/02/05 09:43:06;;;;;;;;;;;;;;;7.68;100.00;98654.34;4653771;30;19932;-77
2022/02/05 09:45:36;;;;;;;;;;;;;;;7.56;100.00;98641.00;4648745;30;19932;-77
2022/02/05 09:48:05;;;;;;;;;;;;;;;7.79;100.00;98655.81;4676136;30;19932;-77
2022/02/05 09:50:32;;;;;;;;;;;;;;;7.76;100.00;98651.06;4663349;30;19932;-77
2022/02/05 09:53:12;;;;;;;;;;;;;;;7.91;100.00;98641.34;4677518;30;19939;-78
2022/02/05 09:55:40;;;;;;;;;;;;;;;8.08;100.00;98645.13;4653251;30;20304;-76
2022/02/05 09:58:07;;;;;;;;;;;;;;;8.01;100.00;98617.41;4653599;30;20393;-78
2022/02/05 10:00:35;;;;;;;;;;;;;;;8.07;100.00;98627.66;4653199;30;19931;-76
2022/02/05 10:03:21;;;;;;;;;;;;;;;8.12;100.00;98629.97;4681720;30;19950;-81
2022/02/05 10:06:12;;;;;;;;;;;;;;;8.04;100.00;98606.19;4668107;30;19931;-81
2022/02/05 10:08:43;;;;;;;;;;;;;;;7.85;100.00;98595.72;4680718;30;19982;-82
2022/02/05 10:11:11;;;;;;;;;;;;;;;7.93;100.00;98600.00;4653287;30;19932;-80
2022/02/05 10:13:40;;;;;;;;;;;;;;;8.18;100.00;98616.38;4682762;30;19955;-80
2022/02/05 10:16:08;;;;;;;;;;;;;;;8.02;100.00;98605.84;4665477;30;19939;-78
2022/02/05 10:18:37;;;;;;;;;;;;;;;7.85;100.00;98608.84;4636165;30;19935;-77
2022/02/05 10:21:19;;;;;;;;;;;;;;;7.92;100.00;98611.56;4636057;30;19936;-77
2022/02/05 10:24:12;;;;;;;;;;;;;;;7.81;100.00;98580.28;4649894;30;19935;-77
2022/02/05 10:26:40;;;;;;;;;;;;;;;7.55;100.00;98595.69;4647891;30;20093;-78
2022/02/05 10:29:09;;;;;;;;;;;;;;;7.46;100.00;98600.97;4666662;30;20412;-77
2022/02/05 10:31:55;;;;;;;;;;;;;;;7.50;100.00;98595.38;4667731;30;19932;-77
2022/02/05 10:34:24;;;;;;;;;;;;;;;7.23;100.00;98575.81;4652834;30;19932;-77
2022/02/05 10:37:07;;;;;;;;;;;;;;;7.26;100.00;98550.75;4652781;30;20019;-77
2022/02/05 10:39:52;;;;;;;;;;;;;;;7.23;100.00;98584.94;4667832;30;19938;-77
2022/02/05 10:45:07;;;;;;;;;;;;;;;7.32;100.00;98576.91;4667849;30;20030;-77
2022/02/05 10:47:52;;;;;;;;;;;;;;;7.42;100.00;98586.34;4667697;30;20311;-77
2022/02/05 10:50:21;;;;;;;;;;;;;;;7.43;100.00;98565.66;4652500;30;19964;-77
2022/02/05 10:52:50;;;;;;;;;;;;;;;7.27;100.00;98562.66;4667670;30;19932;-77
2022/02/05 10:55:31;;;;;;;;;;;;;;;7.22;100.00;98566.66;4652641;30;20296;-77
2022/02/05 11:05:53;;;;;;;;;;;;;;;7.58;100.00;98578.19;4667412;30;19936;-77
2022/02/05 11:08:22;;;;;;;;;;;;;;;7.58;100.00;98550.38;4653087;30;19936;-77
2022/02/05 11:19:13;;;;;;;;;;;;;;;7.82;100.00;98557.63;4665404;30;20418;-78
2022/02/05 11:21:48;;;;;;;;;;;;;;;7.86;100.00;98538.88;4658498;30;20311;-77
2022/02/05 11:24:16;;;;;;;;;;;;;;;7.85;100.00;98528.19;4648770;30;20336;-76
2022/02/05 11:26:43;;;;;;;;;;;;;;;7.87;100.00;98531.34;4634879;30;19932;-77
2022/02/05 11:29:26;;;;;;;;;;;;;;;8.08;100.00;98531.03;4634477;30;20406;-77
2022/02/05 11:32:13;;;;;;;;;;;;;;;8.06;100.00;98548.16;4648751;30;20018;-77
2022/02/05 11:34:48;;;;;;;;;;;;;;;8.11;100.00;98531.00;4648679;30;19955;-77
2022/02/05 11:37:16;;;;;;;;;;;;;;;8.01;100.00;98520.78;4648707;30;19936;-77
2022/02/05 11:39:51;;;;;;;;;;;;;;;8.02;100.00;98516.81;4648682;30;20389;-77
2022/02/05 11:42:24;;;;;;;;;;;;;;;8.11;100.00;98539.34;4648666;30;19933;-76
2022/02/05 11:44:51;;;;;;;;;;;;;;;7.84;100.00;98524.63;4648360;30;19983;-77
2022/02/05 11:47:18;;;;;;;;;;;;;;;7.84;100.00;98532.97;4662664;30;19931;-77
2022/02/05 11:49:48;;;;;;;;;;;;;;;7.89;100.00;98509.47;4658185;30;19967;-77
2022/02/05 11:52:34;;;;;;;;;;;;;;;7.88;100.00;98536.47;4633523;30;20375;-77
2022/02/05 11:55:04;;;;;;;;;;;;;;;7.85;100.00;98537.31;4652310;30;19952;-77
2022/02/05 11:57:47;;;;;;;;;;;;;;;7.93;100.00;98527.69;4652202;30;19932;-77
2022/02/05 12:00:23;;;;;;;;;;;;;;;7.95;100.00;98541.94;4667440;30;20297;-77
2022/02/05 12:03:02;;;;;;;;;;;;;;;7.89;100.00;98526.16;4652709;30;20370;-76
2022/02/05 12:05:39;;;;;;;;;;;;;;;7.87;100.00;98539.69;4654745;30;20425;-77
2022/02/05 12:08:09;;;;;;;;;;;;;;;7.73;100.00;98535.09;4656008;30;19954;-77
2022/02/05 12:10:42;;;;;;;;;;;;;;;7.85;100.00;98553.22;4668905;30;20286;-76
2022/02/05 12:13:15;;;;;;;;;;;;;;;7.90;100.00;98539.66;4668638;30;19931;-76
2022/02/05 12:15:46;;;;;;;;;;;;;;;7.97;100.00;98549.88;4684460;30;19939;-76
2022/02/05 12:18:24;;;;;;;;;;;;;;;7.98;100.00;98538.31;4684400;30;20448;-77
2022/02/05 12:26:00;;;;;;;;;;;;;;;7.85;100.00;98556.78;4684294;30;19932;-76
2022/02/05 12:28:44;;;;;;;;;;;;;;;7.69;100.00;98539.13;4668858;30;19990;-75
2022/02/05 12:31:17;;;;;;;;;;;;;;;7.92;100.00;98547.56;4666310;30;19991;-75
2022/02/05 12:33:48;;;;;;;;;;;;;;;7.87;100.00;98551.63;4668668;30;20026;-76
2022/02/05 12:36:46;;;;;;;;;;;;;;;7.84;100.00;98544.09;4683953;30;20041;-76
2022/02/05 12:39:17;;;;;;;;;;;;;;;7.90;100.00;98545.22;4677374;30;20404;-76
2022/02/05 12:42:01;;;;;;;;;;;;;;;8.01;100.00;98562.53;4683679;30;19971;-75
2022/02/05 12:44:30;;;;;;;;;;;;;;;8.04;100.00;98564.47;4684071;30;19935;-74
2022/02/05 12:47:08;;;;;;;;;;;;;;;7.91;100.00;98559.88;4667320;30;19932;-76
2022/02/05 12:49:47;;;;;;;;;;;;;;;8.12;100.00;98567.97;4666236;30;19982;-74
2022/02/05 12:52:15;;;;;;;;;;;;;;;7.95;100.00;98558.63;4650858;30;19947;-74
2022/02/05 12:54:47;;;;;;;;;;;;;;;7.98;100.00;98560.56;4651400;30;19932;-75
2022/02/05 12:57:16;;;;;;;;;;;;;;;8.02;100.00;98566.91;4668243;30;19931;-75
2022/02/05 12:59:43;;;;;;;;;;;;;;;7.96;100.00;98551.88;4683766;30;19963;-74
2022/02/05 13:02:12;;;;;;;;;;;;;;;8.06;100.00;98553.72;4668290;30;20400;-73
2022/02/05 13:04:41;;;;;;;;;;;;;;;7.95;100.00;98549.53;4654243;30;19931;-73
2022/02/05 13:07:15;;;;;;;;;;;;;;;8.24;100.00;98559.84;4683419;30;19936;-74
2022/02/05 13:09:49;;;;;;;;;;;;;;;8.18;100.00;98528.09;4664765;30;19931;-75
2022/02/05 13:12:22;;;;;;;;;;;;;;;8.16;100.00;98538.88;4679553;30;19975;-74
2022/02/05 13:14:53;;;;;;;;;;;;;;;7.95;100.00;98513.34;4674002;30;19932;-74
2022/02/05 13:17:27;;;;;;;;;;;;;;;8.19;100.00;98538.03;4683444;30;20393;-75
2022/02/05 13:36:07;;;;;;;;;;;;;;;8.21;100.00;98532.81;4640621;30;20008;-74
2022/02/05 13:38:47;;;;;;;;;;;;;;;8.38;100.00;98531.81;4630110;30;19932;-73
2022/02/05 13:41:32;;;;;;;;;;;;;;;8.32;100.00;98527.91;4629692;31;20094;-74
2022/02/05 13:43:59;;;;;;;;;;;;;;;8.25;100.00;98519.69;4630124;31;20389;-73
2022/02/05 13:46:26;;;;;;;;;;;;;;;8.25;100.00;98522.47;4630081;31;20497;-74
2022/02/05 13:49:11;;;;;;;;;;;;;;;8.36;100.00;98523.06;4630087;31;19933;-73
2022/02/05 13:51:38;;;;;;;;;;;;;;;8.37;100.00;98519.09;4629782;31;20034;-74
2022/02/05 13:54:05;;;;;;;;;;;;;;;8.27;100.00;98506.13;4629593;31;19940;-74
2022/02/05 13:56:33;;;;;;;;;;;;;;;8.24;100.00;98503.41;4629945;31;19939;-73
2022/02/05 13:59:01;;;;;;;;;;;;;;;8.45;100.00;98486.38;4634994;30;19936;-74
2022/02/05 14:01:34;;;;;;;;;;;;;;;8.37;100.00;98491.28;4658474;30;19989;-74
2022/02/05 14:04:15;;;;;;;;;;;;;;;8.25;100.00;98488.28;4668208;30;20419;-74
2022/02/05 14:06:52;;;;;;;;;;;;;;;8.30;100.00;98494.16;4653914;30;19932;-74
2022/02/05 14:09:20;;;;;;;;;;;;;;;8.13;100.00;98481.28;4668744;30;19939;-74
2022/02/05 14:11:48;;;;;;;;;;;;;;;8.28;100.00;98479.88;4639854;30;19932;-74
2022/02/05 14:14:25;;;;;;;;;;;;;;;8.38;100.00;98465.00;4653631;30;20078;-74
2022/02/05 14:16:53;;;;;;;;;;;;;;;8.29;100.00;98486.22;4666246;30;19939;-74
2022/02/05 14:19:21;;;;;;;;;;;;;;;8.35;100.00;98482.53;4686048;30;20574;-74
2022/02/05 14:21:50;;;;;;;;;;;;;;;8.59;100.00;98475.75;4686024;30;20451;-74
2022/02/05 14:24:21;;;;;;;;;;;;;;;8.59;100.00;98472.97;4670133;30;20301;-74
2022/02/05 14:27:05;;;;;;;;;;;;;;;8.33;100.00;98462.69;4656429;30;19954;-74
2022/02/05 14:29:54;;;;;;;;;;;;;;;8.39;100.00;98463.00;4683287;30;20397;-74
2022/02/05 14:35:12;;;;;;;;;;;;;;;8.37;100.00;98441.16;4685134;30;19932;-74
2022/02/05 14:40:45;;;;;;;;;;;;;;;8.29;100.00;98450.03;4685688;30;19974;-74
2022/02/05 14:43:16;;;;;;;;;;;;;;;8.27;100.00;98447.69;4670627;30;19954;-74
2022/02/05 14:45:43;;;;;;;;;;;;;;;8.49;100.00;98462.81;4685633;30;19932;-74
2022/02/05 14:48:13;;;;;;;;;;;;;;;8.38;100.00;98441.94;4685615;30;19967;-74
2022/02/05 14:50:41;;;;;;;;;;;;;;;8.32;100.00;98436.06;4670154;30;19984;-75
2022/02/05 14:53:08;;;;;;;;;;;;;;;8.37;100.00;98440.38;4685095;30;20010;-74
2022/02/05 14:55:35;;;;;;;;;;;;;;;8.51;100.00;98440.91;4685467;30;19931;-74
2022/02/05 14:58:03;;;;;;;;;;;;;;;8.54;100.00;98433.72;4685343;30;19932;-74
2022/02/05 15:00:30;;;;;;;;;;;;;;;8.52;100.00;98436.91;4685233;30;20393;-74
2022/02/05 15:02:57;;;;;;;;;;;;;;;8.56;100.00;98415.34;4685272;30;19942;-74
2022/02/05 15:05:24;;;;;;;;;;;;;;;8.41;100.00;98419.59;4684673;30;19939;-74
2022/02/05 15:07:51;;;;;;;;;;;;;;;8.33;100.00;98414.59;4665085;30;19938;-74
2022/02/05 15:10:19;;;;;;;;;;;;;;;8.51;100.00;98421.41;4684730;30;20416;-74
2022/02/05 15:12:46;;;;;;;;;;;;;;;8.56;100.00;98409.00;4669301;30;19958;-74
2022/02/05 15:15:17;;;;;;;;;;;;;;;8.36;100.00;98414.50;4669051;30;19938;-75
2022/02/05 15:17:45;;;;;;;;;;;;;;;8.44;100.00;98404.03;4684820;30;19932;-74
2022/02/05 15:20:13;;;;;;;;;;;;;;;8.61;100.00;98402.94;4684426;30;19938;-74
2022/02/05 15:22:44;;;;;;;;;;;;;;;8.55;100.00;98410.22;4684567;30;20006;-74
2022/02/05 15:25:12;;;;;;;;;;;;;;;8.61;100.00;98411.28;4669645;30;19986;-74
2022/02/05 15:27:40;;;;;;;;;;;;;;;8.51;100.00;98401.16;4684990;30;19932;-74
2022/02/05 15:30:08;;;;;;;;;;;;;;;8.42;100.00;98348.03;4684815;30;20022;-74
2022/02/05 15:32:35;;;;;;;;;;;;;;;8.48;100.00;98397.19;4684843;30;19939;-74
2022/02/05 15:35:03;;;;;;;;;;;;;;;8.66;100.00;98397.66;4684752;30;20034;-74
2022/02/05 15:37:30;;;;;;;;;;;;;;;8.62;100.00;98385.00;4684595;30;19942;-74
2022/02/05 15:45:16;;;;;;;;;;;;;;;8.60;100.00;98365.19;4684651;30;19931;-74
2022/02/05 15:47:43;;;;;;;;;;;;;;;8.68;100.00;98375.75;4655054;30;19970;-75
2022/02/05 15:50:12;;;;;;;;;;;;;;;8.55;100.00;98366.47;4680881;30;20037;-74
2022/02/05 15:52:39;;;;;;;;;;;;;;;8.47;100.00;98361.44;4683237;30;20026;-74
2022/02/05 15:55:07;;;;;;;;;;;;;;;8.60;100.00;98360.38;4684672;30;20018;-74
2022/02/05 15:57:47;;;;;;;;;;;;;;;8.45;100.00;98356.28;4669090;30;19939;-74
2022/02/05 16:00:27;;;;;;;;;;;;;;;8.59;100.00;98358.81;4684400;30;19931;-74
2022/02/05 16:02:55;;;;;;;;;;;;;;;8.64;100.00;98338.84;4684252;30;19938;-74
2022/02/05 16:05:22;;;;;;;;;;;;;;;8.61;100.00;98339.69;4664728;30;20415;-73
2022/02/05 16:07:49;;;;;;;;;;;;;;;8.62;100.00;98332.09;4665784;30;19932;-73
2022/02/05 16:10:17;;;;;;;;;;;;;;;8.63;100.00;98326.09;4665930;30;19932;-74
2022/02/05 16:12:48;;;;;;;;;;;;;;;8.70;100.00;98342.69;4657521;30;19949;-73